Time;durP1;ratioP1;P1;durP2;ratioP2;P2;SDS_P1;SDS_P2;PMS_P1;PMS_P2;Temp;Humidity;BMP_temperature;BMP_pressure;BME280_temperature;BME280_humidity;BME280_pressure;Samples;Min_cycle;Max_cycle;Signal;HPM_P1;HPM_P2
2023/04/11 04:19:54;;;;;;;50.12;23.80;;;;;;;3.48;100.00;100318.69;5562479;32;285832;-86
2023/04/11 04:22:59;;;;;;;51.35;23.95;;;;;;;3.47;100.00;100314.34;5552214;32;33973;-87
2023/04/11 04:26:04;;;;;;;44.42;21.80;;;;;;;3.47;100.00;100314.34;5552145;32;33608;-83
2023/04/11 04:29:08;;;;;;;41.33;21.70;;;;;;;3.55;100.00;100312.41;5549736;32;34532;-82
2023/04/11 04:32:21;;;;;;;37.58;19.45;;;;;;;3.64;100.00;100306.94;5552250;32;33552;-83
2023/04/11 04:35:25;;;;;;;40.28;20.98;;;;;;;3.70;100.00;100315.59;5552348;32;33762;-83
2023/04/11 04:38:29;;;;;;;38.88;20.80;;;;;;;3.74;100.00;100319.88;5551757;32;34069;-83
2023/04/11 04:41:35;;;;;;;36.33;19.52;;;;;;;3.81;100.00;100324.09;5551839;32;33717;-83
2023/04/11 04:44:37;;;;;;;37.42;20.83;;;;;;;3.93;100.00;100322.09;5551426;32;34104;-83
2023/04/11 04:47:41;;;;;;;36.50;19.80;;;;;;;3.97;100.00;100324.59;5551782;32;34312;-83
2023/04/11 04:50:44;;;;;;;36.80;20.05;;;;;;;4.05;100.00;100311.28;5552380;32;32386;-83
2023/04/11 04:53:47;;;;;;;34.45;20.23;;;;;;;4.15;100.00;100312.81;5553567;32;34077;-83
2023/04/11 04:56:50;;;;;;;29.92;17.67;;;;;;;4.24;100.00;100318.72;5552895;32;33911;-83
2023/04/11 04:59:57;;;;;;;32.92;19.37;;;;;;;4.36;100.00;100317.56;5546495;32;34030;-83
2023/04/11 05:03:04;;;;;;;31.15;17.67;;;;;;;4.59;100.00;100317.84;5545444;32;33773;-83
2023/04/11 05:06:08;;;;;;;31.73;18.65;;;;;;;4.72;100.00;100310.50;5550321;32;33907;-83
2023/04/11 05:09:13;;;;;;;27.65;17.10;;;;;;;4.91;100.00;100311.75;5552132;32;33458;-83
2023/04/11 05:12:25;;;;;;;27.33;16.70;;;;;;;5.15;100.00;100298.84;5551631;32;34152;-83
2023/04/11 05:15:28;;;;;;;28.90;17.98;;;;;;;5.38;100.00;100300.84;5553034;32;34327;-83
2023/04/11 05:18:31;;;;;;;31.15;18.67;;;;;;;5.66;100.00;100298.25;5557878;32;34200;-83
2023/04/11 05:21:36;;;;;;;26.70;17.60;;;;;;;5.89;100.00;100294.00;5551332;32;34952;-82
2023/04/11 05:24:43;;;;;;;27.37;17.23;;;;;;;6.40;100.00;100295.94;5556327;32;33807;-83
2023/04/11 05:27:46;;;;;;;28.33;17.37;;;;;;;7.10;100.00;100296.16;5553861;32;34250;-83
2023/04/11 05:30:50;;;;;;;24.27;16.35;;;;;;;8.03;100.00;100289.09;5537999;32;33898;-83
2023/04/11 05:33:55;;;;;;;23.83;15.90;;;;;;;8.54;100.00;100284.41;5537206;32;34114;-83
2023/04/11 05:37:00;;;;;;;21.77;14.73;;;;;;;8.65;100.00;100289.22;5537388;32;33892;-83
2023/04/11 05:40:03;;;;;;;22.00;14.93;;;;;;;8.73;100.00;100289.75;5534777;32;35210;-84
2023/04/11 05:43:07;;;;;;;19.92;14.40;;;;;;;8.89;100.00;100281.13;5538429;32;33796;-83
2023/04/11 05:46:11;;;;;;;22.70;15.15;;;;;;;9.16;100.00;100289.62;5538482;32;33932;-83
2023/04/11 05:49:14;;;;;;;21.35;14.90;;;;;;;9.40;100.00;100289.44;5539148;32;33975;-82
2023/04/11 05:52:17;;;;;;;23.58;14.85;;;;;;;9.87;100.00;100286.41;5541340;32;33754;-83
2023/04/11 05:55:20;;;;;;;21.67;14.25;;;;;;;10.54;100.00;100276.06;5538374;32;34095;-83
2023/04/11 05:58:24;;;;;;;20.30;14.48;;;;;;;11.55;100.00;100262.78;5537398;32;34166;-82
2023/04/11 06:01:26;;;;;;;19.67;13.62;;;;;;;12.49;100.00;100269.00;5537517;32;34182;-87
2023/04/11 06:04:29;;;;;;;19.02;13.23;;;;;;;13.58;94.52;100267.69;5538589;32;32294;-86
2023/04/11 06:07:34;;;;;;;18.73;14.38;;;;;;;14.46;88.26;100267.34;5542530;32;34039;-86
2023/04/11 06:10:37;;;;;;;19.65;14.90;;;;;;;13.27;88.86;100263.44;5543086;32;33800;-85
2023/04/11 06:13:40;;;;;;;18.62;13.75;;;;;;;13.89;88.56;100259.53;5543502;32;34892;-83
2023/04/11 06:16:43;;;;;;;18.50;13.93;;;;;;;14.37;85.74;100260.81;5536856;32;33797;-83
2023/04/11 06:19:46;;;;;;;18.55;14.18;;;;;;;14.27;85.15;100260.59;5543514;32;33544;-82
2023/04/11 06:22:51;;;;;;;18.62;13.98;;;;;;;14.12;87.67;100254.47;5544137;32;34272;-85
2023/04/11 06:25:53;;;;;;;19.95;13.98;;;;;;;14.31;84.70;100255.91;5540604;32;33799;-84
2023/04/11 06:28:56;;;;;;;18.08;13.75;;;;;;;14.76;83.02;100252.88;5544846;32;33953;-84
2023/04/11 06:31:59;;;;;;;20.12;14.15;;;;;;;14.71;83.75;100250.50;5539019;32;33875;-83
2023/04/11 06:35:02;;;;;;;19.20;14.13;;;;;;;15.31;81.10;100245.47;5534558;32;33718;-84
2023/04/11 06:38:05;;;;;;;19.87;14.40;;;;;;;15.68;77.14;100243.75;5543159;32;34126;-83
2023/04/11 06:41:08;;;;;;;19.73;14.93;;;;;;;15.63;77.65;100236.06;5540212;32;34749;-83
2023/04/11 06:44:11;;;;;;;22.90;14.60;;;;;;;14.95;78.72;100242.62;5546673;32;34073;-84
2023/04/11 06:47:14;;;;;;;19.60;14.25;;;;;;;15.66;79.59;100240.34;5544442;32;34080;-83
2023/04/11 06:50:17;;;;;;;18.45;14.00;;;;;;;16.80;73.61;100241.59;5537644;32;33686;-83
2023/04/11 06:53:20;;;;;;;17.67;14.05;;;;;;;17.32;70.12;100241.16;5538440;32;34048;-84
2023/04/11 06:56:23;;;;;;;19.17;14.52;;;;;;;17.36;68.16;100244.44;5527425;32;35163;-83
2023/04/11 06:59:25;;;;;;;18.25;14.57;;;;;;;17.20;69.37;100232.25;5536158;32;33793;-83
2023/04/11 07:02:28;;;;;;;17.52;13.82;;;;;;;16.97;69.58;100234.06;5532982;32;32175;-84
2023/04/11 07:05:32;;;;;;;18.48;14.52;;;;;;;17.51;67.16;100236.97;5535026;32;34192;-84
2023/04/11 07:08:35;;;;;;;21.25;14.35;;;;;;;17.48;69.36;100232.72;5534708;32;33912;-84
2023/04/11 07:11:38;;;;;;;21.80;14.43;;;;;;;18.16;66.28;100236.19;5535878;32;33657;-84
2023/04/11 07:14:41;;;;;;;22.40;14.75;;;;;;;18.56;64.54;100227.41;5536076;32;34154;-84
2023/04/11 07:17:46;;;;;;;18.98;13.98;;;;;;;18.89;60.43;100219.25;5540916;32;33905;-85
2023/04/11 07:20:51;;;;;;;19.02;13.73;;;;;;;19.50;54.68;100214.78;5529279;32;33447;-84
2023/04/11 07:23:54;;;;;;;17.58;14.20;;;;;;;20.16;51.90;100206.22;5529327;32;34151;-84
2023/04/11 07:26:57;;;;;;;19.90;14.48;;;;;;;21.56;47.94;100219.06;5535576;32;32441;-84
2023/04/11 07:30:01;;;;;;;20.30;14.80;;;;;;;20.55;46.26;100213.37;5533510;32;33690;-84
2023/04/11 07:33:05;;;;;;;18.77;15.05;;;;;;;21.74;45.58;100219.09;5536698;32;33124;-84
2023/04/11 07:36:08;;;;;;;17.83;15.35;;;;;;;21.28;44.49;100211.84;5537855;32;34468;-84
2023/04/11 07:39:13;;;;;;;24.05;17.25;;;;;;;20.46;46.16;100204.31;5542598;32;33923;-85
2023/04/11 07:42:16;;;;;;;22.35;18.10;;;;;;;20.08;46.99;100206.94;5537997;32;33575;-84
2023/04/11 07:45:20;;;;;;;25.30;18.92;;;;;;;18.67;51.22;100205.00;5536596;32;33984;-85
2023/04/11 07:48:25;;;;;;;28.17;19.52;;;;;;;17.60;54.74;100213.94;5542216;32;35227;-84
2023/04/11 07:51:27;;;;;;;26.48;19.12;;;;;;;18.15;53.06;100205.78;5536196;32;33647;-84
2023/04/11 07:54:31;;;;;;;24.83;16.33;;;;;;;18.24;53.76;100201.47;5530991;32;33608;-86
2023/04/11 07:57:34;;;;;;;20.67;15.00;;;;;;;18.15;52.50;100200.44;5533337;32;33482;-86
2023/04/11 08:00:37;;;;;;;20.02;13.15;;;;;;;16.47;57.39;100188.84;5529449;32;33817;-86
2023/04/11 08:03:40;;;;;;;18.52;13.55;;;;;;;16.08;58.67;100183.78;5537701;32;33748;-84
2023/04/11 08:06:43;;;;;;;19.65;13.10;;;;;;;15.99;58.79;100177.31;5540216;32;33947;-85
2023/04/11 08:09:46;;;;;;;15.30;10.63;;;;;;;16.25;57.57;100175.31;5546289;31;34777;-84
2023/04/11 08:12:49;;;;;;;12.73;9.75;;;;;;;16.10;58.67;100171.97;5540158;32;34174;-84
2023/04/11 08:15:52;;;;;;;11.27;9.52;;;;;;;15.97;57.89;100177.44;5541274;32;35724;-84
2023/04/11 08:18:56;;;;;;;9.98;8.25;;;;;;;15.60;58.69;100178.31;5533812;32;33671;-88
2023/04/11 08:21:59;;;;;;;13.68;10.20;;;;;;;15.60;59.99;100166.78;5536012;32;33931;-88
2023/04/11 08:25:02;;;;;;;17.00;11.80;;;;;;;15.67;59.90;100165.34;5535967;32;33860;-89
2023/04/11 08:28:05;;;;;;;18.73;13.38;;;;;;;15.60;60.02;100154.25;5535148;32;33719;-85
2023/04/11 08:31:09;;;;;;;17.80;14.27;;;;;;;14.53;64.82;100152.06;5533333;32;34007;-84
2023/04/11 08:34:12;;;;;;;19.52;14.20;;;;;;;14.35;66.38;100146.22;5534183;32;33886;-84
2023/04/11 08:37:15;;;;;;;23.55;15.30;;;;;;;14.36;68.03;100141.72;5537655;32;34036;-84
2023/04/11 08:40:18;;;;;;;20.45;14.45;;;;;;;14.42;66.53;100135.94;5536715;32;34092;-84
2023/04/11 08:43:21;;;;;;;22.00;14.98;;;;;;;15.21;64.91;100125.06;5536837;32;34010;-84
2023/04/11 08:46:24;;;;;;;21.20;15.30;;;;;;;15.54;62.92;100116.44;5550275;32;34531;-84
2023/04/11 08:49:27;;;;;;;19.52;13.75;;;;;;;15.99;61.91;100105.09;5533760;32;34620;-84
2023/04/11 08:52:30;;;;;;;18.65;13.18;;;;;;;16.21;59.57;100098.91;5534689;32;33470;-84
2023/04/11 08:55:33;;;;;;;18.73;12.25;;;;;;;15.87;60.94;100106.84;5539742;32;34072;-84
2023/04/11 08:58:35;;;;;;;18.95;12.07;;;;;;;15.82;59.24;100098.31;5521783;32;33608;-84
2023/04/11 09:01:39;;;;;;;15.40;11.60;;;;;;;15.85;59.35;100096.25;5515657;32;34310;-83
2023/04/11 09:04:43;;;;;;;16.48;12.05;;;;;;;16.21;58.33;100085.53;5529768;32;34236;-84
2023/04/11 09:07:49;;;;;;;15.27;11.68;;;;;;;16.56;57.09;100081.88;5534080;32;33688;-83
2023/04/11 09:11:00;;;;;;;17.17;11.57;;;;;;;16.86;57.39;100090.25;5525454;32;34326;-84
2023/04/11 09:14:10;;;;;;;;;;;;;;;16.39;57.13;100096.62;5518182;32;34556;-84
2023/04/11 09:17:13;;;;;;;18.87;13.95;;;;;;;15.54;59.16;100095.06;5516518;32;32820;-84
2023/04/11 09:20:16;;;;;;;19.73;14.10;;;;;;;15.35;60.43;100085.75;5525307;32;33704;-84
2023/04/11 09:23:21;;;;;;;18.25;14.02;;;;;;;15.73;60.84;100081.13;5534270;32;33241;-84
2023/04/11 09:26:28;;;;;;;22.35;15.38;;;;;;;16.13;59.70;100079.91;5534806;32;33530;-84
2023/04/11 09:29:40;;;;;;;22.62;16.15;;;;;;;16.35;58.69;100068.38;5538551;32;34157;-83
2023/04/11 09:32:43;;;;;;;20.27;15.60;;;;;;;16.47;58.95;100063.03;5542248;32;34451;-84
2023/04/11 09:35:48;;;;;;;21.70;15.32;;;;;;;16.00;60.21;100051.44;5523565;32;34833;-83
2023/04/11 09:38:51;;;;;;;22.65;15.18;;;;;;;16.73;58.59;100057.41;5534134;32;35187;-84
2023/04/11 09:41:54;;;;;;;20.80;14.93;;;;;;;17.11;57.08;100040.06;5532406;32;34489;-83
2023/04/11 09:44:57;;;;;;;19.60;14.63;;;;;;;17.32;56.49;100039.22;5535418;32;33932;-84
2023/04/11 09:48:00;;;;;;;21.55;14.10;;;;;;;17.38;56.76;100042.25;5532706;32;34751;-84
2023/04/11 09:51:06;;;;;;;19.40;14.02;;;;;;;18.21;54.25;100040.69;5549098;32;34121;-83
2023/04/11 09:54:10;;;;;;;16.92;12.98;;;;;;;19.14;52.51;100039.66;5532388;32;34125;-84
2023/04/11 09:57:13;;;;;;;16.10;12.70;;;;;;;19.88;47.89;100042.72;5524285;32;34153;-83
2023/04/11 10:00:20;;;;;;;17.87;13.62;;;;;;;19.97;46.50;100038.34;5535377;32;33924;-84
2023/04/11 10:03:25;;;;;;;17.12;13.07;;;;;;;20.31;45.55;100035.09;5535443;32;35279;-85
2023/04/11 10:06:37;;;;;;;17.52;13.15;;;;;;;19.86;46.36;100027.72;5534215;32;33931;-85
2023/04/11 10:09:42;;;;;;;19.65;14.07;;;;;;;20.44;46.24;100024.00;5530620;32;34489;-89
2023/04/11 10:12:45;;;;;;;16.25;13.50;;;;;;;21.09;43.17;100016.81;5541365;32;33923;-86
2023/04/11 10:16:07;;;;;;;18.75;14.07;;;;;;;22.12;40.78;100014.50;5536281;32;34074;-85
2023/04/11 10:19:22;;;;;;;18.67;14.00;;;;;;;23.57;37.39;100019.97;5528735;32;33729;-85
2023/04/11 10:22:42;;;;;;;15.68;13.20;;;;;;;22.70;39.56;100011.22;5534034;32;32365;-85
2023/04/11 10:25:52;;;;;;;20.00;15.88;;;;;;;22.06;41.92;100004.34;5528317;32;34448;-85
2023/04/11 10:28:55;;;;;;;21.80;15.77;;;;;;;21.05;43.05;100004.62;5541278;32;34095;-83
2023/04/11 10:32:06;;;;;;;19.30;14.40;;;;;;;20.56;44.36;99986.03;5536779;32;34191;-83
2023/04/11 10:35:15;;;;;;;19.65;14.05;;;;;;;20.37;44.69;99976.25;5541922;32;34840;-83
2023/04/11 10:38:40;;;;;;;18.10;13.27;;;;;;;20.71;44.24;99976.47;5533087;32;34383;-83
2023/04/11 10:41:44;;;;;;;18.58;14.07;;;;;;;21.26;42.46;99962.97;5537837;32;34122;-85
2023/04/11 10:45:23;;;;;;;17.27;13.38;;;;;;;20.35;43.16;99960.22;5536581;32;34461;-84
2023/04/11 10:48:26;;;;;;;18.70;14.18;;;;;;;20.40;44.06;99952.56;5547886;31;33662;-88
2023/04/11 10:51:32;;;;;;;16.90;13.52;;;;;;;22.22;39.81;99960.38;5538588;32;35137;-89
2023/04/11 10:54:35;;;;;;;18.08;13.18;;;;;;;23.46;36.76;99948.94;5526861;32;35279;-86
2023/04/11 10:58:05;;;;;;;28.05;15.55;;;;;;;23.78;35.93;99949.03;5523154;32;33977;-85
2023/04/11 11:01:15;;;;;;;;;;;;;;;22.94;37.60;99945.56;5536602;32;34082;-85
2023/04/11 11:04:38;;;;;;;18.37;14.50;;;;;;;21.70;40.47;99939.69;5523132;32;34445;-87
2023/04/11 11:07:45;;;;;;;19.45;14.98;;;;;;;21.08;41.85;99919.88;5532014;32;33677;-85
2023/04/11 11:10:49;;;;;;;20.23;14.50;;;;;;;20.78;42.63;99922.81;5532603;32;34669;-85
2023/04/11 11:13:54;;;;;;;19.30;15.52;;;;;;;20.60;43.69;99914.69;5539367;32;33787;-85
2023/04/11 11:16:58;;;;;;;17.58;13.40;;;;;;;19.91;45.12;99909.69;5540479;32;33710;-84
2023/04/11 11:20:08;;;;;;;14.77;12.18;;;;;;;19.90;42.38;99910.69;5541879;32;35073;-84
2023/04/11 11:23:11;;;;;;;16.05;11.85;;;;;;;20.69;41.40;99903.00;5549426;32;33379;-84
2023/04/11 11:26:14;;;;;;;16.67;12.75;;;;;;;21.38;39.09;99896.97;5540401;32;34204;-85
2023/04/11 11:29:37;;;;;;;21.37;13.48;;;;;;;20.85;40.14;99894.25;5532984;32;33889;-84
2023/04/11 11:32:40;;;;;;;26.80;14.68;;;;;;;20.51;42.39;99884.13;5538526;32;34313;-85
2023/04/11 11:35:50;;;;;;;17.77;14.35;;;;;;;19.78;43.08;99883.12;5527533;32;35158;-84
2023/04/11 11:38:54;;;;;;;20.27;14.68;;;;;;;20.15;42.70;99882.25;5532861;32;34925;-84
2023/04/11 11:41:57;;;;;;;18.00;13.62;;;;;;;19.70;44.15;99881.16;5530537;32;32960;-84
2023/04/11 11:45:17;;;;;;;19.55;14.38;;;;;;;19.46;43.93;99887.06;5542377;32;34351;-84
2023/04/11 11:48:23;;;;;;;19.62;14.02;;;;;;;19.30;43.27;99888.53;5535090;32;34120;-89
2023/04/11 11:51:40;;;;;;;18.12;13.27;;;;;;;19.35;43.52;99880.88;5538764;32;33965;-87
2023/04/11 11:54:46;;;;;;;19.37;13.88;;;;;;;19.10;44.41;99876.94;5534850;32;33641;-87
2023/04/11 12:01:34;;;;;;;16.40;12.27;;;;;;;19.42;42.78;99873.06;5574293;31;20103;-85
2023/04/11 12:04:37;;;;;;;19.05;13.27;;;;;;;19.70;42.69;99862.34;5572411;31;33272;-86
2023/04/11 12:07:40;;;;;;;10.77;8.40;;;;;;;19.55;42.05;99866.53;5579334;31;33973;-86
2023/04/11 12:10:45;;;;;;;16.15;12.02;;;;;;;19.31;40.44;99865.19;5584009;31;33937;-85
2023/04/11 12:13:51;;;;;;;15.95;11.85;;;;;;;18.91;42.83;99867.91;5580468;31;33897;-85
2023/04/11 12:16:54;;;;;;;13.60;11.07;;;;;;;18.77;43.67;99858.47;5571597;31;33849;-86
2023/04/11 12:19:57;;;;;;;13.73;10.60;;;;;;;19.13;43.51;99860.56;5576113;31;34986;-86
2023/04/11 12:26:24;;;;;;;10.52;8.43;;;;;;;19.42;41.92;99867.69;5587131;31;33740;-85
2023/04/11 12:29:27;;;;;;;11.15;8.80;;;;;;;19.37;40.61;99867.28;5581451;31;34041;-85
2023/04/11 12:32:31;;;;;;;14.15;9.55;;;;;;;19.40;40.46;99864.28;5588582;31;33978;-85
2023/04/11 12:35:34;;;;;;;12.13;9.18;;;;;;;19.77;40.35;99866.13;5583790;31;34629;-86
2023/04/11 12:38:37;;;;;;;13.23;9.68;;;;;;;19.82;38.99;99863.00;5570466;31;33981;-86
2023/04/11 12:41:40;;;;;;;12.90;9.60;;;;;;;19.35;41.33;99850.44;5582537;31;34174;-86
2023/04/11 12:44:43;;;;;;;14.63;10.98;;;;;;;18.88;42.65;99853.91;5579175;31;34372;-85
2023/04/11 12:47:46;;;;;;;16.42;10.63;;;;;;;18.80;43.23;99841.22;5590407;31;33748;-86
2023/04/11 12:50:49;;;;;;;15.40;10.10;;;;;;;18.97;41.87;99839.63;5562080;32;34402;-86
2023/04/11 12:53:52;;;;;;;14.05;10.48;;;;;;;18.33;43.23;99834.69;5578390;31;32856;-86
2023/04/11 12:56:57;;;;;;;14.68;11.15;;;;;;;17.51;44.45;99835.59;5581759;32;33979;-86
2023/04/11 13:00:15;;;;;;;14.63;10.27;;;;;;;17.44;44.92;99831.75;5559117;32;34798;-86
2023/04/11 13:03:18;;;;;;;16.25;10.50;;;;;;;17.57;45.29;99818.13;5577879;32;33146;-85
2023/04/11 13:06:22;;;;;;;16.95;10.38;;;;;;;17.92;44.00;99818.66;5578573;31;34730;-86
2023/04/11 13:09:25;;;;;;;12.23;9.63;;;;;;;17.64;44.51;99808.56;5566726;32;34513;-86
2023/04/11 13:12:29;;;;;;;11.05;9.50;;;;;;;17.85;44.03;99809.47;5561077;32;34934;-86
2023/04/11 13:15:32;;;;;;;13.73;9.80;;;;;;;18.19;44.46;99806.44;5578408;31;34661;-86
2023/04/11 13:18:35;;;;;;;12.60;10.40;;;;;;;17.84;44.68;99795.19;5579133;31;34103;-85
2023/04/11 13:21:38;;;;;;;12.73;9.55;;;;;;;17.56;44.13;99796.81;5577877;32;34264;-86
2023/04/11 13:24:41;;;;;;;10.70;9.02;;;;;;;18.07;44.20;99794.13;5572885;31;34220;-85
2023/04/11 13:27:44;;;;;;;12.68;9.95;;;;;;;18.09;44.26;99790.31;5574803;32;34064;-85
2023/04/11 13:30:47;;;;;;;10.68;8.75;;;;;;;18.34;42.65;99790.75;5567920;31;34141;-85
2023/04/11 13:33:51;;;;;;;15.32;9.77;;;;;;;18.38;43.03;99791.31;5568407;31;34077;-86
2023/04/11 13:36:54;;;;;;;11.25;9.43;;;;;;;18.50;42.51;99781.28;5578370;32;35148;-87
2023/04/11 13:39:58;;;;;;;11.73;9.68;;;;;;;17.95;44.47;99766.56;5597294;26;33876;-86
2023/04/11 13:43:01;;;;;;;12.07;9.52;;;;;;;18.11;43.29;99774.06;5584775;31;34022;-87
2023/04/11 13:46:04;;;;;;;11.02;8.85;;;;;;;17.52;43.25;99766.75;5577092;31;34066;-85
2023/04/11 13:49:06;;;;;;;11.23;8.98;;;;;;;17.61;43.57;99763.22;5574948;32;33482;-86
2023/04/11 13:55:55;;;;;;;11.30;8.73;;;;;;;18.05;42.49;99760.22;5813966;27;20133;-86
2023/04/11 13:58:58;;;;;;;11.57;9.02;;;;;;;17.87;42.63;99756.50;5438354;32;34406;-85
2023/04/11 14:02:01;;;;;;;9.38;8.07;;;;;;;18.02;42.80;99762.31;5441795;32;33628;-86
2023/04/11 14:05:05;;;;;;;6.82;5.97;;;;;;;17.75;41.98;99751.25;5437890;32;34072;-85
2023/04/11 14:08:07;;;;;;;7.53;6.00;;;;;;;17.76;39.46;99763.69;5437568;32;34066;-86
2023/04/11 14:11:10;;;;;;;8.68;6.45;;;;;;;17.58;40.84;99754.59;5437383;32;33891;-86
2023/04/11 14:14:13;;;;;;;8.10;6.00;;;;;;;17.43;40.37;99749.63;5442745;32;34076;-88
2023/04/11 14:17:16;;;;;;;6.10;5.50;;;;;;;17.70;39.87;99766.09;5443054;32;33885;-88
2023/04/11 14:20:19;;;;;;;5.97;5.43;;;;;;;17.11;40.90;99766.72;5443090;32;34384;-87
2023/04/11 14:26:48;;;;;;;6.60;5.70;;;;;;;16.61;42.62;99767.38;5435025;32;34510;-87
2023/04/11 14:29:51;;;;;;;6.80;6.07;;;;;;;16.84;43.14;99765.41;5436929;32;33558;-87
2023/04/11 14:32:54;;;;;;;10.10;6.40;;;;;;;16.51;44.34;99770.88;5436019;32;34153;-87
2023/04/11 14:35:58;;;;;;;6.40;5.75;;;;;;;16.44;46.21;99785.72;5436842;32;33494;-87
2023/04/11 14:39:03;;;;;;;6.72;5.87;;;;;;;15.96;47.36;99795.03;5437323;32;34286;-87
2023/04/11 14:42:08;;;;;;;10.48;6.60;;;;;;;15.75;48.98;99787.75;5436591;32;34007;-87
2023/04/11 14:45:11;;;;;;;9.63;6.85;;;;;;;15.68;50.51;99797.25;5437820;32;34343;-87
2023/04/11 14:48:16;;;;;;;8.95;7.05;;;;;;;15.32;51.84;99795.56;5439678;32;33602;-87
2023/04/11 14:51:20;;;;;;;12.98;7.47;;;;;;;15.24;53.13;99797.97;5440298;32;34070;-88
2023/04/11 14:54:23;;;;;;;11.35;7.55;;;;;;;14.68;55.84;99796.88;5441456;32;34136;-87
2023/04/11 14:57:45;;;;;;;8.25;5.25;;;;;;;14.32;58.25;99799.56;5438763;32;33748;-87
2023/04/11 15:00:48;;;;;;;3.55;3.22;;;;;;;13.97;60.80;99805.69;5437702;32;33639;-87
2023/04/11 15:04:00;;;;;;;3.20;2.80;;;;;;;13.88;63.22;99800.06;5438369;32;34869;-87
2023/04/11 15:07:03;;;;;;;4.60;2.97;;;;;;;13.72;65.73;99812.81;5442220;32;34852;-86
2023/04/11 15:10:07;;;;;;;4.95;3.50;;;;;;;13.33;68.58;99812.88;5438575;32;34454;-87
2023/04/11 15:13:11;;;;;;;5.28;4.07;;;;;;;13.33;70.20;99813.69;5437628;32;33745;-88
2023/04/11 15:16:15;;;;;;;7.07;4.22;;;;;;;13.44;71.13;99817.41;5438188;32;33747;-87
2023/04/11 15:19:20;;;;;;;5.25;4.35;;;;;;;13.22;74.15;99821.59;5436840;32;33920;-86
2023/04/11 15:22:23;;;;;;;5.85;4.53;;;;;;;12.99;77.83;99829.38;5436373;32;34563;-86
2023/04/11 15:25:26;;;;;;;5.85;5.03;;;;;;;12.40;84.12;99820.84;5437136;32;33835;-86
2023/04/11 15:28:31;;;;;;;9.38;6.30;;;;;;;12.30;89.23;99819.75;5436097;32;34900;-86
2023/04/11 15:31:36;;;;;;;8.80;6.12;;;;;;;12.20;96.05;99839.91;5435718;32;33983;-86
